44N weather

Sky Acres Airport
Millbrook, New York, United States

Public forecast

Using degrees Fahrenheit for public forecast. Weather courtesy of forecast.io.

METAR (pilot weather report)

Closest report is Dutchess County Airport, 8.2 nm (15.1 km) SW. Retrieved 2019/07/16 14:53 UTC (42 minutes ago):

KPOU 161453Z 22006KT 10SM CLR 28/16 A3005 RMK AO2 SLP172 T02830161 58012

TAF (pilot weather forecast)

Closest forecast is Dutchess County Airport, 8.2 nm (15.1 km) SW. Retrieved 2019/07/16 12:42 UTC (3 hours ago):

TAF KPOU 161141Z 1612/1712 VRB03KT P6SM SCT150 BKN200 FM161400 22004KT P6SM BKN150 FM161600 22006KT P6SM SCT100 BKN120 BKN200 FM170000 VRB03KT P6SM VCSH BKN045 BKN100